TimeCDT,TemperatureF,Dew PointF,Humidity,Sea Level PressureIn,VisibilityMPH,Wind Direction,Wind SpeedMPH,Gust SpeedMPH,PrecipitationIn,Events,Conditions,WindDirDegrees,DateUTC
12:51 AM,70.0,64.9,84,29.96,10.0,SSE,15.0,-,N/A,,Partly Cloudy,160,2013-03-31 05:51:00
1:51 AM,69.1,64.9,87,29.94,10.0,SSE,16.1,-,N/A,,Partly Cloudy,160,2013-03-31 06:51:00
2:40 AM,69.8,64.4,83,29.94,10.0,South,12.7,-,N/A,,Scattered Clouds,170,2013-03-31 07:40:00
2:46 AM,69.8,64.4,83,29.94,9.0,South,12.7,-,N/A,,Mostly Cloudy,170,2013-03-31 07:46:00
2:51 AM,69.1,64.9,87,29.93,9.0,South,12.7,-,N/A,,Mostly Cloudy,170,2013-03-31 07:51:00
3:51 AM,70.0,66.0,87,29.91,9.0,South,15.0,-,N/A,,Overcast,170,2013-03-31 08:51:00
4:51 AM,70.0,64.9,84,29.90,9.0,SSE,15.0,-,N/A,,Mostly Cloudy,160,2013-03-31 09:51:00
5:51 AM,71.1,66.0,84,29.89,10.0,South,13.8,-,N/A,,Overcast,170,2013-03-31 10:51:00
6:42 AM,71.6,66.2,83,29.90,10.0,South,13.8,-,N/A,,Overcast,170,2013-03-31 11:42:00
6:51 AM,71.1,66.0,84,29.90,10.0,South,12.7,-,N/A,,Overcast,170,2013-03-31 11:51:00
7:51 AM,72.0,66.0,81,29.92,9.0,South,12.7,-,N/A,,Overcast,180,2013-03-31 12:51:00
8:45 AM,73.4,66.2,78,29.93,10.0,South,10.4,-,N/A,,Scattered Clouds,170,2013-03-31 13:45:00
8:51 AM,73.0,66.0,79,29.93,10.0,South,11.5,-,N/A,,Scattered Clouds,180,2013-03-31 13:51:00
8:57 AM,73.4,66.2,78,29.94,10.0,South,10.4,-,N/A,,Mostly Cloudy,170,2013-03-31 13:57:00
9:45 AM,77.0,66.2,69,29.94,10.0,SSE,12.7,-,N/A,,Scattered Clouds,160,2013-03-31 14:45:00
9:51 AM,77.0,66.9,71,29.94,10.0,South,10.4,-,N/A,,Scattered Clouds,170,2013-03-31 14:51:00
10:08 AM,77.0,66.2,69,29.94,10.0,South,12.7,-,N/A,,Mostly Cloudy,180,2013-03-31 15:08:00
10:51 AM,79.0,66.0,64,29.93,10.0,South,15.0,-,N/A,,Scattered Clouds,170,2013-03-31 15:51:00
11:51 AM,82.0,66.0,58,29.91,10.0,SSE,15.0,20.7,N/A,,Partly Cloudy,150,2013-03-31 16:51:00
12:51 PM,86.0,66.0,51,29.90,10.0,SSE,19.6,24.2,N/A,,Scattered Clouds,160,2013-03-31 17:51:00
1:51 PM,84.9,66.0,53,29.89,10.0,SE,11.5,20.7,N/A,,Scattered Clouds,130,2013-03-31 18:51:00
2:51 PM,86.0,66.9,53,29.86,10.0,SE,16.1,20.7,N/A,,Mostly Cloudy,130,2013-03-31 19:51:00
3:51 PM,86.0,66.9,53,29.83,10.0,SE,19.6,26.5,N/A,,Partly Cloudy,130,2013-03-31 20:51:00
4:51 PM,84.9,66.0,53,29.79,9.0,SSE,24.2,-,N/A,,Partly Cloudy,150,2013-03-31 21:51:00
5:51 PM,82.0,66.0,58,29.81,9.0,SE,21.9,-,N/A,,Partly Cloudy,140,2013-03-31 22:51:00
6:51 PM,78.1,66.0,66,29.84,8.0,SE,13.8,-,N/A,,Scattered Clouds,130,2013-03-31 23:51:00
7:51 PM,75.0,66.0,73,29.86,10.0,ESE,15.0,-,N/A,,Scattered Clouds,120,2013-04-01 00:51:00
8:21 PM,75.2,66.2,73,29.90,9.0,ENE,12.7,-,N/A,,Mostly Cloudy,70,2013-04-01 01:21:00
8:49 PM,73.4,66.2,78,29.92,10.0,East,13.8,-,N/A,Thunderstorm,Thunderstorm,90,2013-04-01 01:49:00
8:51 PM,73.9,66.9,79,29.92,10.0,East,13.8,-,N/A,Thunderstorm,Thunderstorm,90,2013-04-01 01:51:00
9:24 PM,73.4,66.2,78,29.90,10.0,East,23.0,27.6,0.00,Rain,Light Rain,80,2013-04-01 02:24:00
9:51 PM,73.9,66.9,79,29.91,9.0,ESE,19.6,27.6,0.00,,Mostly Cloudy,120,2013-04-01 02:51:00
10:51 PM,73.9,66.9,79,29.92,9.0,SE,16.1,26.5,N/A,,Partly Cloudy,130,2013-04-01 03:51:00
11:51 PM,73.0,66.9,81,29.91,9.0,ESE,16.1,-,N/A,,Partly Cloudy,120,2013-04-01 04:51:00